Time;durP1;ratioP1;P1;durP2;ratioP2;P2;SDS_P1;SDS_P2;PMS_P1;PMS_P2;Temp;Humidity;BMP_temperature;BMP_pressure;BME280_temperature;BME280_humidity;BME280_pressure;Samples;Min_cycle;Max_cycle;Signal;HPM_P1;HPM_P2
2020/12/24 00:00:05;;;;;;;;;;;;;;;0.19;96.76;99581.91;3547796;27;20426;-41
2020/12/24 00:01:46;;;;;;;;;;;;;;;0.19;96.86;99576.78;3547577;27;19981;-41
2020/12/24 00:03:27;;;;;;;;;;;;;;;0.20;96.83;99578.53;3547638;27;19927;-42
2020/12/24 00:05:08;;;;;;;;;;;;;;;0.20;96.82;99577.66;3548117;27;20012;-41
2020/12/24 00:06:50;;;;;;;;;;;;;;;0.21;96.90;99579.44;3547172;27;20002;-41
2020/12/24 00:08:31;;;;;;;;;;;;;;;0.20;97.00;99580.22;3536823;27;20039;-41
2020/12/24 00:10:12;;;;;;;;;;;;;;;0.20;97.00;99581.06;3538613;28;19966;-43
2020/12/24 00:11:55;;;;;;;;;;;;;;;0.21;97.03;99584.53;3538018;28;19985;-41
2020/12/24 00:13:37;;;;;;;;;;;;;;;0.22;97.01;99581.16;3539044;28;19927;-41
2020/12/24 00:15:19;;;;;;;;;;;;;;;0.21;97.02;99574.31;3537043;28;19927;-41
2020/12/24 00:17:00;;;;;;;;;;;;;;;0.21;96.92;99579.44;3538217;28;20216;-42
2020/12/24 00:18:41;;;;;;;;;;;;;;;0.20;97.06;99570.88;3539654;28;19934;-42
2020/12/24 00:20:22;;;;;;;;;;;;;;;0.20;96.96;99570.88;3538438;27;19927;-41
2020/12/24 00:22:04;;;;;;;;;;;;;;;0.19;97.11;99566.59;3538588;28;19971;-41
2020/12/24 00:23:45;;;;;;;;;;;;;;;0.20;96.77;99562.34;3539308;28;19973;-42
2020/12/24 00:25:26;;;;;;;;;;;;;;;0.20;97.10;99567.47;3535629;28;19927;-41
2020/12/24 00:27:07;;;;;;;;;;;;;;;0.19;96.89;99571.69;3538938;28;19931;-41
2020/12/24 00:28:50;;;;;;;;;;;;;;;0.18;97.02;99566.50;3538877;27;20331;-41
2020/12/24 00:30:31;;;;;;;;;;;;;;;0.18;96.81;99566.50;3538369;28;19978;-41
2020/12/24 00:32:12;;;;;;;;;;;;;;;0.18;96.85;99566.50;3539251;27;19977;-42
2020/12/24 00:33:54;;;;;;;;;;;;;;;0.19;96.77;99569.13;3538319;28;19934;-64
2020/12/24 00:35:35;;;;;;;;;;;;;;;0.17;97.08;99569.84;3538258;27;20421;-64
2020/12/24 00:37:16;;;;;;;;;;;;;;;0.17;96.81;99562.19;3538755;28;19927;-64
2020/12/24 00:38:57;;;;;;;;;;;;;;;0.17;96.80;99568.19;3537983;27;19980;-64
2020/12/24 00:40:38;;;;;;;;;;;;;;;0.17;96.89;99559.63;3538729;28;19991;-64
2020/12/24 00:42:20;;;;;;;;;;;;;;;0.17;96.97;99560.53;3536900;28;19928;-64
2020/12/24 00:44:02;;;;;;;;;;;;;;;0.17;97.04;99574.94;3537818;27;20406;-63
2020/12/24 00:45:43;;;;;;;;;;;;;;;0.16;97.02;99571.50;3539318;28;19928;-63
2020/12/24 00:47:24;;;;;;;;;;;;;;;0.17;96.80;99567.28;3537979;27;20476;-64
2020/12/24 00:49:05;;;;;;;;;;;;;;;0.18;97.04;99569.06;3535478;28;19932;-42
2020/12/24 00:50:47;;;;;;;;;;;;;;;0.18;96.95;99576.72;3538773;27;20384;-41
2020/12/24 00:52:28;;;;;;;;;;;;;;;0.19;96.91;99573.38;3538240;27;19962;-42
2020/12/24 00:54:10;;;;;;;;;;;;;;;0.19;96.74;99576.78;3538722;28;19967;-41
2020/12/24 00:55:51;;;;;;;;;;;;;;;0.19;97.13;99579.34;3538265;27;19932;-42
2020/12/24 00:57:32;;;;;;;;;;;;;;;0.20;96.98;99578.53;3537457;28;19962;-42
2020/12/24 00:59:14;;;;;;;;;;;;;;;0.20;97.10;99572.56;3539152;27;19978;-42
2020/12/24 01:00:55;;;;;;;;;;;;;;;0.19;96.84;99573.38;3537972;28;20342;-41
2020/12/24 01:02:36;;;;;;;;;;;;;;;0.20;96.79;99575.97;3538098;27;19990;-42
2020/12/24 01:04:18;;;;;;;;;;;;;;;0.20;97.18;99577.66;3538801;28;19933;-44
2020/12/24 01:05:59;;;;;;;;;;;;;;;0.19;96.89;99581.91;3537498;27;20026;-41
2020/12/24 01:07:40;;;;;;;;;;;;;;;0.20;96.75;99582.75;3538646;27;19931;-42
2020/12/24 01:09:21;;;;;;;;;;;;;;;0.19;96.86;99581.91;3538289;28;19927;-41
2020/12/24 01:11:02;;;;;;;;;;;;;;;0.20;97.08;99577.66;3537413;27;19950;-45
2020/12/24 01:12:44;;;;;;;;;;;;;;;0.20;97.11;99572.56;3538894;28;19927;-42
2020/12/24 01:14:26;;;;;;;;;;;;;;;0.20;96.87;99575.09;3538024;27;19980;-42
2020/12/24 01:16:07;;;;;;;;;;;;;;;0.21;97.10;99576.88;3535044;28;20375;-41
2020/12/24 01:17:55;;;;;;;;;;;;;;;0.20;97.06;99577.66;3538750;27;20017;-41
2020/12/24 01:19:36;;;;;;;;;;;;;;;0.20;96.82;99583.63;3536784;27;19976;-41
2020/12/24 01:21:17;;;;;;;;;;;;;;;0.20;96.95;99586.19;3538378;28;19927;-42
2020/12/24 01:22:59;;;;;;;;;;;;;;;0.20;97.07;99578.53;3538002;28;20410;-43
2020/12/24 01:24:41;;;;;;;;;;;;;;;0.21;97.11;99577.75;3537844;28;20151;-42
2020/12/24 01:26:22;;;;;;;;;;;;;;;0.21;97.06;99581.97;3538888;27;19935;-42
2020/12/24 01:28:03;;;;;;;;;;;;;;;0.20;97.17;99577.66;3537686;28;19927;-42
2020/12/24 01:29:45;;;;;;;;;;;;;;;0.20;96.93;99581.06;3537696;27;19974;-42
2020/12/24 01:31:26;;;;;;;;;;;;;;;0.20;97.09;99586.19;3535735;28;20395;-42
2020/12/24 01:33:07;;;;;;;;;;;;;;;0.19;97.20;99584.44;3537369;27;19928;-41
2020/12/24 01:34:49;;;;;;;;;;;;;;;0.21;96.93;99584.53;3538121;27;19927;-42
2020/12/24 01:36:30;;;;;;;;;;;;;;;0.21;97.21;99581.97;3538386;27;19963;-42
2020/12/24 01:38:11;;;;;;;;;;;;;;;0.21;96.89;99585.41;3537257;28;19958;-41
2020/12/24 01:39:53;;;;;;;;;;;;;;;0.21;96.95;99579.44;3538500;27;19927;-42
2020/12/24 01:41:34;;;;;;;;;;;;;;;0.22;97.14;99576.06;3537487;28;19927;-42
2020/12/24 01:43:16;;;;;;;;;;;;;;;0.22;96.95;99578.63;3535787;27;19927;-42
2020/12/24 01:44:58;;;;;;;;;;;;;;;0.21;96.97;99577.75;3538387;28;20344;-41
2020/12/24 01:46:39;;;;;;;;;;;;;;;0.21;97.24;99570.09;3537331;27;20395;-41
2020/12/24 01:48:35;;;;;;;;;;;;;;;0.21;97.01;99569.22;3536477;28;19927;-41
2020/12/24 01:50:16;;;;;;;;;;;;;;;0.22;97.22;99573.50;3538709;28;19966;-40
2020/12/24 01:51:58;;;;;;;;;;;;;;;0.22;97.17;99573.50;3537380;27;19939;-41
2020/12/24 01:53:40;;;;;;;;;;;;;;;0.21;97.04;99572.63;3537671;28;19927;-40
2020/12/24 01:55:21;;;;;;;;;;;;;;;0.22;97.32;99571.84;3538169;28;19931;-41
2020/12/24 01:57:02;;;;;;;;;;;;;;;0.21;97.13;99570.09;3537250;28;20024;-41
2020/12/24 01:58:44;;;;;;;;;;;;;;;0.21;97.11;99570.09;3538404;27;19927;-40
2020/12/24 02:00:26;;;;;;;;;;;;;;;0.22;97.24;99573.50;3537111;28;20318;-41
2020/12/24 02:02:07;;;;;;;;;;;;;;;0.21;97.15;99567.53;3534849;28;19927;-61
2020/12/24 02:03:52;;;;;;;;;;;;;;;0.22;97.29;99568.41;3538387;28;19932;-41
2020/12/24 02:05:33;;;;;;;;;;;;;;;0.22;97.15;99565.84;3537309;27;20000;-39
2020/12/24 02:07:15;;;;;;;;;;;;;;;0.22;97.05;99563.31;3537330;28;19980;-41
2020/12/24 02:08:56;;;;;;;;;;;;;;;0.22;96.97;99560.75;3538111;28;20057;-40
2020/12/24 02:10:37;;;;;;;;;;;;;;;0.23;97.22;99567.63;3537027;28;20419;-40
2020/12/24 02:12:18;;;;;;;;;;;;;;;0.23;97.27;99565.06;3537886;27;20370;-61
2020/12/24 02:14:01;;;;;;;;;;;;;;;0.22;97.03;99564.22;3537174;28;19949;-62
2020/12/24 02:15:43;;;;;;;;;;;;;;;0.22;96.96;99555.66;3537300;27;19971;-62
2020/12/24 02:17:24;;;;;;;;;;;;;;;0.23;97.18;99563.41;3538216;28;20018;-62
2020/12/24 02:19:05;;;;;;;;;;;;;;;0.23;96.96;99563.41;3536981;27;20414;-62
2020/12/24 02:20:48;;;;;;;;;;;;;;;0.23;97.29;99554.88;3534314;28;20574;-62
2020/12/24 02:22:29;;;;;;;;;;;;;;;0.22;97.03;99561.66;3537766;28;19980;-41
2020/12/24 02:24:10;;;;;;;;;;;;;;;0.22;97.28;99559.09;3537100;27;19984;-62
2020/12/24 02:25:51;;;;;;;;;;;;;;;0.22;96.90;99565.84;3537502;28;19973;-63
2020/12/24 02:27:33;;;;;;;;;;;;;;;0.22;97.12;99560.75;3537469;28;19928;-40
2020/12/24 02:29:14;;;;;;;;;;;;;;;0.21;97.13;99553.91;3536957;28;19927;-40
2020/12/24 02:30:56;;;;;;;;;;;;;;;0.21;97.17;99551.38;3537679;27;20046;-40
2020/12/24 02:32:37;;;;;;;;;;;;;;;0.21;97.13;99551.38;3536881;27;19978;-40
2020/12/24 02:34:18;;;;;;;;;;;;;;;0.21;97.09;99551.38;3537059;28;20399;-41
2020/12/24 02:36:00;;;;;;;;;;;;;;;0.21;97.00;99553.91;3537695;28;19931;-40
2020/12/24 02:37:41;;;;;;;;;;;;;;;0.21;97.18;99554.78;3536921;28;19928;-40
2020/12/24 02:39:23;;;;;;;;;;;;;;;0.20;96.98;99558.13;3536697;27;20360;-40
2020/12/24 02:41:04;;;;;;;;;;;;;;;0.21;97.31;99556.47;3535788;28;19935;-40
2020/12/24 02:42:45;;;;;;;;;;;;;;;0.20;97.35;99550.47;3533888;27;19927;-62
2020/12/24 02:44:26;;;;;;;;;;;;;;;0.21;97.19;99556.47;3535233;28;19939;-61
2020/12/24 02:46:08;;;;;;;;;;;;;;;0.20;96.93;99558.13;3536845;27;19980;-61
2020/12/24 02:47:49;;;;;;;;;;;;;;;0.22;97.15;99558.19;3536676;27;20391;-40
2020/12/24 02:49:31;;;;;;;;;;;;;;;0.21;96.96;99559.03;3537459;28;19932;-40
2020/12/24 02:51:13;;;;;;;;;;;;;;;0.21;97.15;99559.03;3536838;27;19967;-61
2020/12/24 02:52:55;;;;;;;;;;;;;;;0.21;96.99;99559.88;3537236;28;19966;-40
2020/12/24 02:54:36;;;;;;;;;;;;;;;0.19;97.08;99564.03;3536990;28;20376;-40
2020/12/24 02:56:17;;;;;;;;;;;;;;;0.20;97.19;99559.81;3536443;28;20386;-40
2020/12/24 02:58:00;;;;;;;;;;;;;;;0.19;97.08;99564.03;3537668;28;19927;-40
2020/12/24 02:59:41;;;;;;;;;;;;;;;0.20;97.15;99564.91;3536615;27;20414;-40
2020/12/24 03:01:22;;;;;;;;;;;;;;;0.19;97.20;99568.28;3536630;28;20279;-40
2020/12/24 03:03:03;;;;;;;;;;;;;;;0.18;97.16;99562.28;3537267;28;19927;-61
2020/12/24 03:04:44;;;;;;;;;;;;;;;0.18;97.30;99559.72;3536786;28;20026;-40
2020/12/24 03:06:26;;;;;;;;;;;;;;;0.19;97.14;99570.81;3537339;27;20026;-40
2020/12/24 03:08:07;;;;;;;;;;;;;;;0.19;97.08;99564.03;3536393;28;20462;-62
2020/12/24 03:09:48;;;;;;;;;;;;;;;0.19;97.24;99563.16;3536867;28;19939;-62
2020/12/24 03:11:30;;;;;;;;;;;;;;;0.19;97.02;99558.94;3537833;27;20387;-62
2020/12/24 03:13:11;;;;;;;;;;;;;;;0.19;97.26;99552.97;3536327;28;19980;-62
2020/12/24 03:14:52;;;;;;;;;;;;;;;0.19;97.23;99548.72;3536612;27;20072;-62
2020/12/24 03:16:34;;;;;;;;;;;;;;;0.20;97.08;99547.91;3536521;28;20022;-62
2020/12/24 03:18:15;;;;;;;;;;;;;;;0.20;97.18;99549.59;3536702;27;19978;-40
2020/12/24 03:19:56;;;;;;;;;;;;;;;0.20;97.21;99549.59;3537184;28;19928;-40
2020/12/24 03:21:38;;;;;;;;;;;;;;;0.19;97.25;99543.63;3536930;28;20018;-61
2020/12/24 03:23:19;;;;;;;;;;;;;;;0.20;96.93;99547.06;3536217;28;19974;-62
2020/12/24 03:25:00;;;;;;;;;;;;;;;0.19;97.29;99543.63;3537599;27;20041;-40
2020/12/24 03:26:42;;;;;;;;;;;;;;;0.20;97.05;99544.50;3536527;28;19927;-40
2020/12/24 03:28:23;;;;;;;;;;;;;;;0.20;97.25;99544.50;3536444;28;19934;-40
2020/12/24 03:30:04;;;;;;;;;;;;;;;0.20;97.17;99542.81;3537429;28;19982;-40
2020/12/24 03:31:46;;;;;;;;;;;;;;;0.20;96.97;99547.06;3536251;28;19959;-40
2020/12/24 03:33:27;;;;;;;;;;;;;;;0.20;97.15;99540.25;3534375;28;19931;-62
2020/12/24 03:35:08;;;;;;;;;;;;;;;0.18;97.36;99536.75;3536432;27;20331;-61
2020/12/24 03:36:50;;;;;;;;;;;;;;;0.18;97.07;99536.75;3536184;28;20578;-40
2020/12/24 03:38:32;;;;;;;;;;;;;;;0.17;97.27;99541.78;3537634;27;19977;-40
2020/12/24 03:40:13;;;;;;;;;;;;;;;0.17;97.29;99550.34;3535727;28;19989;-40
2020/12/24 03:41:54;;;;;;;;;;;;;;;0.16;97.32;99538.38;3534804;28;20199;-40
2020/12/24 03:43:35;;;;;;;;;;;;;;;0.16;97.25;99530.72;3538542;27;19928;-40
2020/12/24 03:45:16;;;;;;;;;;;;;;;0.17;97.28;99526.47;3538776;28;19983;-40
2020/12/24 03:46:57;;;;;;;;;;;;;;;0.18;97.33;99524.00;3538945;28;19931;-40
2020/12/24 03:48:39;;;;;;;;;;;;;;;0.19;97.32;99519.81;3538921;28;19974;-40
2020/12/24 03:50:20;;;;;;;;;;;;;;;0.19;96.98;99524.91;3538562;28;19931;-40
2020/12/24 03:52:02;;;;;;;;;;;;;;;0.18;97.12;99518.03;3539870;27;19935;-40
2020/12/24 03:53:43;;;;;;;;;;;;;;;0.18;97.19;99526.56;3538858;28;19974;-61
2020/12/24 03:55:24;;;;;;;;;;;;;;;0.18;97.24;99529.09;3538569;28;20478;-61
2020/12/24 03:57:05;;;;;;;;;;;;;;;0.18;97.07;99521.47;3539273;28;20064;-61
2020/12/24 03:58:47;;;;;;;;;;;;;;;0.18;97.35;99518.03;3535932;28;19931;-61
2020/12/24 04:00:28;;;;;;;;;;;;;;;0.18;97.48;99512.94;3539096;28;19928;-61
2020/12/24 04:02:09;;;;;;;;;;;;;;;0.18;97.08;99516.34;3538967;27;19975;-61
2020/12/24 04:03:51;;;;;;;;;;;;;;;0.18;97.34;99518.03;3538682;28;19931;-39
2020/12/24 04:05:32;;;;;;;;;;;;;;;0.17;97.22;99514.63;3539889;27;19927;-40
2020/12/24 04:07:14;;;;;;;;;;;;;;;0.18;97.31;99518.03;3538226;28;19975;-40
2020/12/24 04:08:55;;;;;;;;;;;;;;;0.17;97.36;99514.63;3538320;27;20399;-40
2020/12/24 04:10:36;;;;;;;;;;;;;;;0.16;97.34;99517.09;3539635;28;19934;-40
2020/12/24 04:12:18;;;;;;;;;;;;;;;0.16;97.32;99515.41;3538621;27;19978;-61
2020/12/24 04:13:59;;;;;;;;;;;;;;;0.15;97.39;99512.78;3538978;28;19959;-62
2020/12/24 04:15:40;;;;;;;;;;;;;;;0.16;97.13;99514.53;3539014;28;19971;-61
2020/12/24 04:17:21;;;;;;;;;;;;;;;0.16;97.09;99512.00;3538345;28;19939;-40
2020/12/24 04:19:03;;;;;;;;;;;;;;;0.17;97.34;99513.72;3539305;27;19970;-40
2020/12/24 04:20:44;;;;;;;;;;;;;;;0.17;97.12;99506.06;3538237;28;20010;-40
2020/12/24 04:22:26;;;;;;;;;;;;;;;0.17;97.22;99500.97;3538219;28;19927;-61
2020/12/24 04:24:07;;;;;;;;;;;;;;;0.18;97.41;99492.53;3539140;28;20399;-40
2020/12/24 04:25:48;;;;;;;;;;;;;;;0.17;97.29;99490.75;3535750;28;19928;-40
2020/12/24 04:27:30;;;;;;;;;;;;;;;0.16;97.11;99492.44;3538578;28;20441;-40
2020/12/24 04:29:12;;;;;;;;;;;;;;;0.18;97.00;99505.28;3537803;28;19970;-61
2020/12/24 04:30:53;;;;;;;;;;;;;;;0.18;97.30;99502.72;3538301;28;19969;-61
2020/12/24 04:32:34;;;;;;;;;;;;;;;0.18;97.27;99495.09;3539440;27;19969;-40
2020/12/24 04:34:15;;;;;;;;;;;;;;;0.16;97.40;99497.56;3537916;28;20411;-40
2020/12/24 04:35:57;;;;;;;;;;;;;;;0.16;97.41;99500.09;3538149;27;21008;-40
2020/12/24 04:37:38;;;;;;;;;;;;;;;0.17;97.16;99508.63;3539171;28;19953;-40
2020/12/24 04:39:20;;;;;;;;;;;;;;;0.17;97.20;99506.06;3538346;27;19981;-40
2020/12/24 04:41:01;;;;;;;;;;;;;;;0.16;97.22;99504.34;3538499;28;20336;-61
2020/12/24 04:42:43;;;;;;;;;;;;;;;0.17;97.17;99503.53;3536780;28;20296;-61
2020/12/24 04:44:25;;;;;;;;;;;;;;;0.15;97.34;99498.34;3537985;27;19927;-61
2020/12/24 04:46:07;;;;;;;;;;;;;;;0.15;97.04;99498.34;3539234;27;19971;-61
2020/12/24 04:47:54;;;;;;;;;;;;;;;0.16;96.99;99500.09;3537022;28;19927;-41
2020/12/24 04:49:35;;;;;;;;;;;;;;;0.16;97.34;99497.56;3537939;27;20297;-40
2020/12/24 04:51:17;;;;;;;;;;;;;;;0.16;97.31;99500.09;3539229;28;19973;-40
2020/12/24 04:52:59;;;;;;;;;;;;;;;0.16;97.09;99486.47;3535518;28;19935;-40
2020/12/24 04:54:41;;;;;;;;;;;;;;;0.16;97.10;99486.47;3538175;27;19985;-40
2020/12/24 04:56:22;;;;;;;;;;;;;;;0.16;97.17;99486.47;3538703;27;19973;-40
2020/12/24 04:58:03;;;;;;;;;;;;;;;0.15;97.30;99494.91;3537663;27;20407;-40
2020/12/24 04:59:45;;;;;;;;;;;;;;;0.16;97.11;99496.69;3538759;27;20745;-40
2020/12/24 05:01:26;;;;;;;;;;;;;;;0.14;97.37;99499.16;3537099;28;19980;-40
2020/12/24 05:03:08;;;;;;;;;;;;;;;0.15;97.24;99494.91;3537724;27;19966;-61
2020/12/24 05:04:51;;;;;;;;;;;;;;;0.16;97.18;99499.22;3538819;28;19934;-61
2020/12/24 05:06:32;;;;;;;;;;;;;;;0.16;97.26;99506.88;3538153;27;19927;-61
2020/12/24 05:08:14;;;;;;;;;;;;;;;0.16;97.44;99499.22;3538037;28;19973;-61
2020/12/24 05:09:59;;;;;;;;;;;;;;;0.15;97.38;99500.88;3538104;28;19962;-40
2020/12/24 05:11:44;;;;;;;;;;;;;;;0.16;97.13;99512.00;3537758;27;19965;-40
2020/12/24 05:13:25;;;;;;;;;;;;;;;0.16;97.38;99509.44;3538350;28;20311;-40
2020/12/24 05:15:06;;;;;;;;;;;;;;;0.15;97.14;99503.44;3538037;28;20366;-40
2020/12/24 05:16:58;;;;;;;;;;;;;;;0.15;97.38;99498.34;3537140;28;20321;-40
2020/12/24 05:18:39;;;;;;;;;;;;;;;0.16;97.36;99496.69;3537281;28;19943;-61
2020/12/24 05:20:39;;;;;;;;;;;;;;;0.16;97.42;99502.66;3537304;28;19943;-61
2020/12/24 05:22:21;;;;;;;;;;;;;;;0.15;97.39;99500.88;3537152;28;19927;-61
2020/12/24 05:24:20;;;;;;;;;;;;;;;0.16;97.42;99512.84;3538364;27;20000;-62
2020/12/24 05:26:17;;;;;;;;;;;;;;;0.16;97.35;99505.19;3538247;27;19927;-61
2020/12/24 05:27:57;;;;;;;;;;;;;;;0.16;97.35;99512.00;3534874;28;19938;-42
2020/12/24 05:29:39;;;;;;;;;;;;;;;0.17;97.14;99506.06;3538147;28;20387;-61
2020/12/24 05:31:31;;;;;;;;;;;;;;;0.16;97.50;99497.56;3536140;27;20387;-61
2020/12/24 05:33:13;;;;;;;;;;;;;;;0.15;97.29;99495.78;3537407;27;20316;-61
2020/12/24 05:35:07;;;;;;;;;;;;;;;0.15;97.10;99503.44;3538069;28;19935;-61
2020/12/24 05:36:48;;;;;;;;;;;;;;;0.16;97.33;99500.09;3536411;28;19934;-61
2020/12/24 05:38:32;;;;;;;;;;;;;;;0.16;97.29;99496.69;3537042;27;19944;-61
2020/12/24 05:40:18;;;;;;;;;;;;;;;0.16;97.21;99504.34;3538535;27;19927;-61
2020/12/24 05:42:02;;;;;;;;;;;;;;;0.16;97.27;99512.00;3535454;28;19934;-61
2020/12/24 05:43:53;;;;;;;;;;;;;;;0.16;97.50;99506.88;3537195;28;20034;-59
2020/12/24 05:45:34;;;;;;;;;;;;;;;0.17;97.45;99518.81;3538431;28;19966;-41
2020/12/24 05:47:15;;;;;;;;;;;;;;;0.17;97.37;99517.16;3537231;28;20296;-40
2020/12/24 05:49:08;;;;;;;;;;;;;;;0.17;97.23;99512.06;3537495;27;19967;-41
2020/12/24 05:51:02;;;;;;;;;;;;;;;0.18;97.29;99516.34;3536446;28;19976;-40
2020/12/24 05:53:01;;;;;;;;;;;;;;;0.18;97.29;99521.47;3536528;28;19928;-61
2020/12/24 05:54:44;;;;;;;;;;;;;;;0.19;97.51;99525.78;3533282;28;20307;-40
2020/12/24 05:56:26;;;;;;;;;;;;;;;0.19;97.30;99515.56;3537750;27;19980;-40
2020/12/24 05:58:08;;;;;;;;;;;;;;;0.20;97.36;99508.78;3536608;28;19927;-40
2020/12/24 05:59:49;;;;;;;;;;;;;;;0.19;97.58;99504.50;3536198;28;19985;-41
2020/12/24 06:01:37;;;;;;;;;;;;;;;0.19;97.48;99494.31;3538046;28;20391;-40
2020/12/24 06:03:19;;;;;;;;;;;;;;;0.20;97.43;99491.81;3535349;28;19927;-40
2020/12/24 06:05:06;;;;;;;;;;;;;;;0.20;97.57;99489.25;3536497;28;20394;-40
2020/12/24 06:06:47;;;;;;;;;;;;;;;0.21;97.61;99485.91;3537471;27;20332;-40
2020/12/24 06:08:30;;;;;;;;;;;;;;;0.23;97.49;99488.56;3535729;28;21031;-40
2020/12/24 06:10:11;;;;;;;;;;;;;;;0.23;97.67;99488.56;3538168;28;20307;-40
2020/12/24 06:11:53;;;;;;;;;;;;;;;0.23;97.66;99481.75;3538592;28;19935;-39
2020/12/24 06:13:40;;;;;;;;;;;;;;;0.24;97.54;99477.53;3537748;28;19928;-41
2020/12/24 06:15:25;;;;;;;;;;;;;;;0.25;97.61;99480.97;3537577;28;19963;-40
2020/12/24 06:17:07;;;;;;;;;;;;;;;0.25;97.44;99479.28;3536602;28;19985;-41
2020/12/24 06:18:48;;;;;;;;;;;;;;;0.25;97.67;99483.53;3536179;27;20027;-40
2020/12/24 06:20:30;;;;;;;;;;;;;;;0.26;97.64;99486.16;3537591;28;19967;-40
2020/12/24 06:22:11;;;;;;;;;;;;;;;0.26;97.39;99473.41;3535087;28;20315;-40
2020/12/24 06:23:57;;;;;;;;;;;;;;;0.26;97.65;99482.72;3536022;28;19963;-41
2020/12/24 06:25:38;;;;;;;;;;;;;;;0.26;97.36;99488.72;3536844;28;20019;-40
2020/12/24 06:27:26;;;;;;;;;;;;;;;0.27;97.40;99487.91;3535461;28;20460;-40
2020/12/24 06:29:07;;;;;;;;;;;;;;;0.27;97.59;99490.44;3536608;28;19967;-40
2020/12/24 06:30:49;;;;;;;;;;;;;;;0.28;97.37;99481.13;3536493;28;19973;-40
2020/12/24 06:32:33;;;;;;;;;;;;;;;0.28;97.67;99474.34;3535929;28;19966;-41
2020/12/24 06:34:21;;;;;;;;;;;;;;;0.30;97.60;99471.91;3538495;28;19927;-41
2020/12/24 06:36:03;;;;;;;;;;;;;;;0.29;97.58;99471.00;3537424;28;19927;-41
2020/12/24 06:37:44;;;;;;;;;;;;;;;0.30;97.53;99474.44;3537082;27;20049;-40
2020/12/24 06:39:38;;;;;;;;;;;;;;;0.29;97.59;99470.13;3538545;28;19928;-40
2020/12/24 06:41:24;;;;;;;;;;;;;;;0.29;97.35;99470.13;3536635;28;19927;-40
2020/12/24 06:43:06;;;;;;;;;;;;;;;0.29;97.55;99477.78;3535877;28;19971;-40
2020/12/24 06:44:48;;;;;;;;;;;;;;;0.30;97.58;99474.44;3524541;28;19971;-40
2020/12/24 06:46:29;;;;;;;;;;;;;;;0.29;97.67;99481.19;3535157;28;19927;-41
2020/12/24 06:48:19;;;;;;;;;;;;;;;0.28;97.67;99476.91;3537614;28;19974;-40
2020/12/24 06:50:00;;;;;;;;;;;;;;;0.28;97.69;99473.47;3538870;27;19971;-41
2020/12/24 06:51:47;;;;;;;;;;;;;;;0.28;97.72;99484.56;3537648;27;19927;-41
2020/12/24 06:53:29;;;;;;;;;;;;;;;0.28;97.62;99471.81;3537569;28;20044;-41
2020/12/24 06:55:13;;;;;;;;;;;;;;;0.29;97.77;99478.66;3538393;27;19959;-40
2020/12/24 06:57:13;;;;;;;;;;;;;;;0.28;97.43;99466.72;3536430;28;19970;-40
2020/12/24 06:58:56;;;;;;;;;;;;;;;0.29;97.42;99465.88;3536719;28;19970;-40
2020/12/24 07:00:38;;;;;;;;;;;;;;;0.29;97.73;99463.34;3537399;28;19928;-40
2020/12/24 07:02:23;;;;;;;;;;;;;;;0.32;97.57;99472.84;3536229;27;19927;-40
2020/12/24 07:04:05;;;;;;;;;;;;;;;0.33;97.56;99467.81;3537081;28;20418;-40
2020/12/24 07:05:46;;;;;;;;;;;;;;;0.34;97.65;99464.44;3537075;28;19927;-40
2020/12/24 07:07:44;;;;;;;;;;;;;;;0.35;97.67;99461.13;3536028;28;19942;-42
2020/12/24 07:09:42;;;;;;;;;;;;;;;0.36;97.60;99459.44;3535853;28;19985;-40
2020/12/24 07:11:42;;;;;;;;;;;;;;;0.37;97.40;99468.84;3536441;28;19970;-40
2020/12/24 07:13:30;;;;;;;;;;;;;;;0.38;97.66;99466.38;3536014;28;20014;-40
2020/12/24 07:15:24;;;;;;;;;;;;;;;0.38;97.55;99468.94;3535859;28;20419;-40
2020/12/24 07:17:10;;;;;;;;;;;;;;;0.39;97.47;99470.66;3536361;27;20081;-40
2020/12/24 07:18:51;;;;;;;;;;;;;;;0.39;97.68;99468.13;3537330;28;20367;-40
2020/12/24 07:20:34;;;;;;;;;;;;;;;0.40;97.69;99458.78;3538413;27;19969;-40
2020/12/24 07:22:17;;;;;;;;;;;;;;;0.40;97.45;99459.69;3537520;28;19927;-40
2020/12/24 07:24:02;;;;;;;;;;;;;;;0.41;97.67;99453.75;3538067;27;20295;-40
2020/12/24 07:25:46;;;;;;;;;;;;;;;0.43;97.49;99457.25;3538603;27;20735;-40
2020/12/24 07:27:27;;;;;;;;;;;;;;;0.43;97.69;99456.38;3537941;27;19981;-40
2020/12/24 07:29:09;;;;;;;;;;;;;;;0.45;97.67;99456.47;3537567;28;19973;-40
2020/12/24 07:30:57;;;;;;;;;;;;;;;0.45;97.51;99456.47;3538528;28;20017;-40
2020/12/24 07:32:39;;;;;;;;;;;;;;;0.44;97.77;99453.06;3538141;28;19928;-40
2020/12/24 07:34:23;;;;;;;;;;;;;;;0.45;97.52;99456.47;3538745;27;20462;-40
2020/12/24 07:36:06;;;;;;;;;;;;;;;0.45;97.63;99467.53;3539168;27;19935;-40
2020/12/24 07:37:48;;;;;;;;;;;;;;;0.45;97.65;99462.44;3538401;27;20333;-40
2020/12/24 07:39:30;;;;;;;;;;;;;;;0.46;97.49;99459.09;3538464;28;19971;-40
2020/12/24 07:41:14;;;;;;;;;;;;;;;0.48;97.68;99462.59;3539965;28;19927;-40
2020/12/24 07:43:05;;;;;;;;;;;;;;;0.49;97.66;99458.38;3533434;28;19971;-40
2020/12/24 07:44:46;;;;;;;;;;;;;;;0.49;97.49;99461.81;3537729;28;20045;-40
2020/12/24 07:46:28;;;;;;;;;;;;;;;0.50;97.68;99457.56;3539376;28;20383;-40
2020/12/24 07:48:10;;;;;;;;;;;;;;;0.50;97.66;99449.91;3537824;28;20056;-40
2020/12/24 07:49:52;;;;;;;;;;;;;;;0.50;97.67;99448.22;3539088;27;19928;-40
2020/12/24 07:51:33;;;;;;;;;;;;;;;0.49;97.62;99456.72;3538983;28;20000;-40
2020/12/24 07:53:18;;;;;;;;;;;;;;;0.49;97.51;99446.50;3535884;28;19975;-40
2020/12/24 07:55:07;;;;;;;;;;;;;;;0.50;97.60;99455.88;3539677;27;19927;-40
2020/12/24 07:56:48;;;;;;;;;;;;;;;0.50;97.66;99458.44;3537816;28;20115;-40
2020/12/24 07:58:30;;;;;;;;;;;;;;;0.50;97.48;99453.34;3538052;27;19962;-40
2020/12/24 08:00:11;;;;;;;;;;;;;;;0.50;97.67;99455.03;3539390;28;20405;-39
2020/12/24 08:02:02;;;;;;;;;;;;;;;0.50;97.48;99455.88;3538415;28;19992;-40
2020/12/24 08:03:43;;;;;;;;;;;;;;;0.50;97.61;99457.56;3538799;28;19957;-40
2020/12/24 08:05:24;;;;;;;;;;;;;;;0.49;97.55;99461.81;3539277;27;20415;-40
2020/12/24 08:07:05;;;;;;;;;;;;;;;0.48;97.52;99454.06;3538156;28;20014;-59
2020/12/24 08:08:47;;;;;;;;;;;;;;;0.48;97.70;99461.72;3538795;27;20014;-59
2020/12/24 08:10:28;;;;;;;;;;;;;;;0.48;97.65;99465.16;3537402;28;20484;-59
2020/12/24 08:12:09;;;;;;;;;;;;;;;0.47;97.54;99465.97;3537871;27;20351;-59
2020/12/24 08:13:54;;;;;;;;;;;;;;;0.45;97.38;99470.09;3539302;28;19973;-59
2020/12/24 08:15:38;;;;;;;;;;;;;;;0.43;97.64;99471.69;3536582;28;19932;-59
2020/12/24 08:17:28;;;;;;;;;;;;;;;0.42;97.71;99478.47;3537774;27;19978;-59
2020/12/24 08:19:13;;;;;;;;;;;;;;;0.40;97.35;99472.44;3539224;28;19972;-59
2020/12/24 08:20:58;;;;;;;;;;;;;;;0.40;97.57;99477.53;3538082;28;19928;-59
2020/12/24 08:22:47;;;;;;;;;;;;;;;0.40;97.55;99482.63;3535577;28;19931;-59
2020/12/24 08:24:30;;;;;;;;;;;;;;;0.39;97.55;99470.66;3539358;28;20410;-58
2020/12/24 08:26:12;;;;;;;;;;;;;;;0.40;97.41;99477.53;3537867;27;19928;-59
2020/12/24 08:27:53;;;;;;;;;;;;;;;0.38;97.53;99475.69;3538125;27;19977;-58
2020/12/24 08:29:36;;;;;;;;;;;;;;;0.37;97.57;99476.50;3538031;27;19980;-59
2020/12/24 08:31:18;;;;;;;;;;;;;;;0.36;97.52;99470.50;3523856;27;19927;-58
2020/12/24 08:33:03;;;;;;;;;;;;;;;0.37;97.60;99466.31;3524856;28;19927;-59
2020/12/24 08:34:45;;;;;;;;;;;;;;;0.36;97.55;99461.97;3523003;28;20010;-59
2020/12/24 08:36:27;;;;;;;;;;;;;;;0.35;97.51;99461.13;3522227;28;19934;-59
2020/12/24 08:38:12;;;;;;;;;;;;;;;0.34;97.46;99450.81;3525561;28;19978;-56
2020/12/24 08:39:53;;;;;;;;;;;;;;;0.33;97.29;99455.06;3524442;28;19927;-59
2020/12/24 08:41:36;;;;;;;;;;;;;;;0.30;97.40;99454.91;3523783;28;19963;-59
2020/12/24 08:43:17;;;;;;;;;;;;;;;0.28;97.41;99455.59;3523871;28;19985;-59
2020/12/24 08:44:58;;;;;;;;;;;;;;;0.26;97.28;99441.91;3523741;28;19977;-59
2020/12/24 08:46:39;;;;;;;;;;;;;;;0.27;97.42;99443.66;3524940;28;19932;-59
2020/12/24 08:48:31;;;;;;;;;;;;;;;0.26;97.17;99442.78;3525060;28;19928;-58
2020/12/24 08:50:12;;;;;;;;;;;;;;;0.27;97.45;99436.88;3524724;28;19979;-56
2020/12/24 08:52:07;;;;;;;;;;;;;;;0.27;97.28;99431.78;3525842;28;19966;-59
2020/12/24 08:53:49;;;;;;;;;;;;;;;0.28;97.23;99425.88;3523971;28;19975;-59
2020/12/24 08:55:31;;;;;;;;;;;;;;;0.27;97.35;99416.47;3524372;28;19971;-59
2020/12/24 08:57:13;;;;;;;;;;;;;;;0.25;97.13;99418.06;3529235;28;19967;-59
2020/12/24 08:58:54;;;;;;;;;;;;;;;0.24;97.25;99416.31;3524357;28;19963;-59
2020/12/24 09:00:35;;;;;;;;;;;;;;;0.25;97.12;99404.44;3524510;28;19928;-59
2020/12/24 09:02:23;;;;;;;;;;;;;;;0.27;97.38;99418.16;3525156;28;19971;-59